createdAt,value
2023-02-11T00:01:50.745Z,71.04
2023-02-11T00:04:17.404Z,70.98
2023-02-11T00:06:44.201Z,70.07
2023-02-11T00:09:12.157Z,71.72
2023-02-11T00:11:38.780Z,71.36
2023-02-11T00:14:08.386Z,71.03
2023-02-11T00:16:35.070Z,71.63
2023-02-11T00:19:03.448Z,71.05
2023-02-11T00:21:30.187Z,70.97
2023-02-11T00:23:59.900Z,71.66
2023-02-11T00:26:30.590Z,71.70
2023-02-11T00:28:57.585Z,74.60
2023-02-11T00:31:25.614Z,77.86
2023-02-11T00:33:55.628Z,76.37
2023-02-11T00:36:25.207Z,76.13
2023-02-11T00:38:52.983Z,77.38
2023-02-11T00:41:20.191Z,77.43
2023-02-11T00:43:47.232Z,75.61
2023-02-11T00:46:14.345Z,75.50
2023-02-11T00:48:41.102Z,73.92
2023-02-11T00:51:08.502Z,73.03
2023-02-11T00:53:35.841Z,71.59
2023-02-11T00:56:03.105Z,71.00
2023-02-11T00:58:29.876Z,69.13
2023-02-11T01:00:57.064Z,68.48
2023-02-11T01:03:24.711Z,66.60
2023-02-11T01:05:51.684Z,66.57
2023-02-11T01:08:21.159Z,65.93
2023-02-11T01:11:03.298Z,66.85
2023-02-11T01:13:31.745Z,65.58
2023-02-11T01:15:58.505Z,64.85
2023-02-11T01:18:25.694Z,66.13
2023-02-11T01:20:53.428Z,65.46
2023-02-11T01:23:20.872Z,64.39
2023-02-11T01:25:47.888Z,63.36
2023-02-11T01:28:23.959Z,63.93
2023-02-11T01:30:52.836Z,63.55
2023-02-11T01:33:19.923Z,62.33
2023-02-11T01:35:46.887Z,61.79
2023-02-11T01:38:19.097Z,61.89
2023-02-11T01:40:51.496Z,62.22
2023-02-11T01:43:18.841Z,62.23
2023-02-11T01:45:46.234Z,61.85
2023-02-11T01:48:17.757Z,62.01
2023-02-11T01:50:46.363Z,62.00
2023-02-11T01:53:32.428Z,60.72
2023-02-11T01:56:18.280Z,61.35
2023-02-11T01:58:47.967Z,61.71
2023-02-11T02:01:21.384Z,61.41
2023-02-11T02:03:51.725Z,60.88
2023-02-11T02:06:34.735Z,60.04
2023-02-11T02:09:06.934Z,60.42
2023-02-11T02:11:34.583Z,60.14
2023-02-11T02:14:02.819Z,60.18
2023-02-11T02:16:35.861Z,61.23
2023-02-11T02:19:31.752Z,60.42
2023-02-11T02:22:35.977Z,60.92
2023-02-11T02:25:14.984Z,61.37
2023-02-11T02:28:05.078Z,61.01
2023-02-11T02:31:01.462Z,61.64
2023-02-11T02:33:42.221Z,61.02
2023-02-11T02:36:28.491Z,60.40
2023-02-11T02:39:05.833Z,60.87
2023-02-11T02:41:34.348Z,61.53
2023-02-11T02:44:01.821Z,61.67
2023-02-11T02:46:31.568Z,61.54
2023-02-11T02:48:59.247Z,61.54
2023-02-11T02:52:03.476Z,61.30
2023-02-11T02:54:30.859Z,61.52
2023-02-11T02:57:18.842Z,61.46
2023-02-11T02:59:48.641Z,61.49
2023-02-11T03:02:31.409Z,60.91
2023-02-11T03:05:12.942Z,61.60
2023-02-11T03:07:55.778Z,60.83
2023-02-11T03:10:34.802Z,61.34
2023-02-11T03:13:03.412Z,60.85
2023-02-11T03:15:34.820Z,61.06
2023-02-11T03:18:03.650Z,60.91
2023-02-11T03:20:35.957Z,60.08
2023-02-11T03:23:11.533Z,60.40
2023-02-11T03:25:45.800Z,59.84
2023-02-11T03:28:37.290Z,60.51
2023-02-11T03:31:09.854Z,59.99
2023-02-11T03:34:00.751Z,60.20
2023-02-11T03:36:36.104Z,60.35
2023-02-11T03:39:05.240Z,60.67
2023-02-11T03:41:35.515Z,60.60
2023-02-11T03:44:03.539Z,60.56
2023-02-11T03:46:35.440Z,60.40
2023-02-11T03:49:09.782Z,59.83
2023-02-11T03:51:38.696Z,61.35
2023-02-11T03:54:10.640Z,61.34
2023-02-11T03:56:47.074Z,61.60
2023-02-11T03:59:13.740Z,61.54
2023-02-11T04:01:40.784Z,61.18
2023-02-11T04:04:07.614Z,60.75
2023-02-11T04:06:34.316Z,61.85
2023-02-11T04:09:00.952Z,61.75
2023-02-11T04:11:27.740Z,62.08
2023-02-11T04:13:54.511Z,61.51
2023-02-11T04:16:21.616Z,62.31
2023-02-11T04:18:48.383Z,61.92
2023-02-11T04:21:15.038Z,61.32
2023-02-11T04:23:41.841Z,61.48
2023-02-11T04:26:08.450Z,62.44
2023-02-11T04:28:36.304Z,61.67
2023-02-11T04:31:03.138Z,62.80
2023-02-11T04:33:29.785Z,63.49
2023-02-11T04:35:56.420Z,63.19
2023-02-11T04:38:24.183Z,62.78
2023-02-11T04:40:51.456Z,63.47
2023-02-11T04:43:18.173Z,63.49
2023-02-11T04:45:44.773Z,63.32
2023-02-11T04:48:11.551Z,64.07
2023-02-11T04:50:38.126Z,64.03
2023-02-11T04:53:04.792Z,63.80
2023-02-11T04:55:31.376Z,63.97
2023-02-11T04:57:58.039Z,63.90
2023-02-11T05:00:24.706Z,63.03
2023-02-11T05:02:51.538Z,63.57
2023-02-11T05:05:18.222Z,63.43
2023-02-11T05:07:44.864Z,64.03
2023-02-11T05:10:11.451Z,63.90
2023-02-11T05:12:38.106Z,64.15
2023-02-11T05:15:05.357Z,64.68
2023-02-11T05:17:32.054Z,65.91
2023-02-11T05:20:00.403Z,65.62
2023-02-11T05:22:27.096Z,66.03
2023-02-11T05:24:53.784Z,64.84
2023-02-11T05:27:20.450Z,64.51
2023-02-11T05:29:47.118Z,65.15
2023-02-11T05:32:13.820Z,65.09
2023-02-11T05:34:40.479Z,64.88
2023-02-11T05:37:07.226Z,64.82
2023-02-11T05:39:34.710Z,65.90
2023-02-11T05:42:01.507Z,65.29
2023-02-11T05:44:28.657Z,66.05
2023-02-11T05:46:55.340Z,65.00
2023-02-11T05:49:21.969Z,64.89
2023-02-11T05:51:49.172Z,65.68
2023-02-11T05:54:15.961Z,65.23
2023-02-11T05:56:44.783Z,65.27
2023-02-11T05:59:14.249Z,64.94
2023-02-11T06:01:40.974Z,64.82
2023-02-11T06:04:07.541Z,65.58
2023-02-11T06:06:34.147Z,64.81
2023-02-11T06:09:00.894Z,65.14
2023-02-11T06:11:27.534Z,64.77
2023-02-11T06:13:54.165Z,64.55
2023-02-11T06:16:20.914Z,64.82
2023-02-11T06:18:47.512Z,65.43
2023-02-11T06:21:14.231Z,65.54
2023-02-11T06:23:40.841Z,66.27
2023-02-11T06:26:15.387Z,66.65
2023-02-11T06:28:42.164Z,66.50
2023-02-11T06:31:09.840Z,66.22
2023-02-11T06:33:36.730Z,66.04
2023-02-11T06:36:05.037Z,65.91
2023-02-11T06:38:31.667Z,65.49
2023-02-11T06:40:58.228Z,65.18
2023-02-11T06:43:24.835Z,65.43
2023-02-11T06:45:55.702Z,66.02
2023-02-11T06:48:23.850Z,66.57
2023-02-11T06:50:50.474Z,66.00
2023-02-11T06:53:17.103Z,67.64
2023-02-11T06:55:43.681Z,70.06
2023-02-11T06:58:10.394Z,68.84
2023-02-11T07:00:37.568Z,67.08
2023-02-11T07:03:04.349Z,66.38
2023-02-11T07:05:31.164Z,68.09
2023-02-11T07:07:57.788Z,67.69
2023-02-11T07:10:24.396Z,67.37
2023-02-11T07:12:51.177Z,67.84
2023-02-11T07:15:17.957Z,67.76
2023-02-11T07:17:44.564Z,71.00
2023-02-11T07:20:12.501Z,70.21
2023-02-11T07:22:39.161Z,69.10
2023-02-11T07:25:06.202Z,68.34
2023-02-11T07:27:32.892Z,69.63
2023-02-11T07:29:59.649Z,69.04
2023-02-11T07:32:26.332Z,68.05
2023-02-11T07:34:53.065Z,68.31
2023-02-11T07:37:22.877Z,68.21
2023-02-11T07:39:49.647Z,70.44
2023-02-11T07:42:16.507Z,73.50
2023-02-11T07:44:43.981Z,72.26
2023-02-11T07:47:11.023Z,73.14
2023-02-11T07:49:37.584Z,71.43
2023-02-11T07:52:04.399Z,72.07
2023-02-11T07:54:31.008Z,73.62
2023-02-11T07:56:57.649Z,75.79
2023-02-11T07:59:24.977Z,75.95
2023-02-11T08:01:51.752Z,75.05
2023-02-11T08:04:18.411Z,74.11
2023-02-11T08:06:45.036Z,73.93
2023-02-11T08:09:16.563Z,75.11
2023-02-11T08:11:43.618Z,76.37
2023-02-11T08:14:11.286Z,75.05
2023-02-11T08:16:41.885Z,73.98
2023-02-11T08:19:13.258Z,72.99
2023-02-11T08:21:40.758Z,72.75
2023-02-11T08:24:07.761Z,71.54
2023-02-11T08:26:34.930Z,70.89
2023-02-11T08:29:05.633Z,70.71
2023-02-11T08:31:38.425Z,70.60
2023-02-11T08:34:05.711Z,70.51
2023-02-11T08:36:36.724Z,71.10
2023-02-11T08:39:18.542Z,70.01
2023-02-11T08:41:48.840Z,71.33
2023-02-11T08:44:15.947Z,70.59
2023-02-11T08:46:42.626Z,71.10
2023-02-11T08:49:09.253Z,71.04
2023-02-11T08:51:35.994Z,69.63
2023-02-11T08:54:02.681Z,69.23
2023-02-11T08:56:31.352Z,69.31
2023-02-11T08:58:59.415Z,69.14
2023-02-11T09:01:28.937Z,69.88
2023-02-11T09:03:57.060Z,70.19
2023-02-11T09:06:25.016Z,70.99
2023-02-11T09:08:53.601Z,70.60
2023-02-11T09:11:24.731Z,68.59
2023-02-11T09:13:54.317Z,69.51
2023-02-11T09:16:27.598Z,71.80
2023-02-11T09:18:57.010Z,71.37
2023-02-11T09:21:24.224Z,71.27
2023-02-11T09:23:50.965Z,70.37
2023-02-11T09:26:20.021Z,69.38
2023-02-11T09:28:47.380Z,69.52
2023-02-11T09:31:17.284Z,69.40
2023-02-11T09:33:48.909Z,68.87
2023-02-11T09:36:21.728Z,68.17
2023-02-11T09:38:48.816Z,69.01
2023-02-11T09:41:24.420Z,69.33
2023-02-11T09:43:55.261Z,69.41
2023-02-11T09:46:23.706Z,69.41
2023-02-11T09:48:53.619Z,69.55
2023-02-11T09:51:40.816Z,69.55
2023-02-11T09:54:15.418Z,69.19
2023-02-11T09:56:42.419Z,69.79
2023-02-11T09:59:15.352Z,69.01
2023-02-11T10:01:48.108Z,69.05
2023-02-11T10:04:31.848Z,68.78
2023-02-11T10:07:16.373Z,68.72
2023-02-11T10:10:03.866Z,68.50
2023-02-11T10:12:48.863Z,68.86
2023-02-11T10:15:24.248Z,69.11
2023-02-11T10:18:32.526Z,68.65
2023-02-11T10:21:05.870Z,68.39
2023-02-11T10:23:39.744Z,68.17
2023-02-11T10:26:13.929Z,68.38
2023-02-11T10:28:44.520Z,68.56
2023-02-11T10:31:36.133Z,68.31
2023-02-11T10:34:05.703Z,68.27
2023-02-11T10:36:38.804Z,65.97
2023-02-11T10:39:14.688Z,65.77
2023-02-11T10:41:47.226Z,65.20
2023-02-11T10:44:24.601Z,66.34
2023-02-11T10:46:52.122Z,65.63
2023-02-11T10:49:37.242Z,66.31
2023-02-11T10:52:19.460Z,64.25
2023-02-11T10:55:24.507Z,65.54
2023-02-11T10:57:58.387Z,64.88
2023-02-11T11:00:40.044Z,64.69
2023-02-11T11:03:21.974Z,64.28
2023-02-11T11:05:51.193Z,64.44
2023-02-11T11:08:18.911Z,63.97
2023-02-11T11:10:48.268Z,64.11
2023-02-11T11:13:29.028Z,64.23
2023-02-11T11:16:20.806Z,63.77
2023-02-11T11:18:50.281Z,64.18
2023-02-11T11:21:23.823Z,64.10
2023-02-11T11:23:58.264Z,64.45
2023-02-11T11:26:42.987Z,64.95
2023-02-11T11:29:16.208Z,64.96
2023-02-11T11:31:57.020Z,65.41
2023-02-11T11:34:34.281Z,65.52
2023-02-11T11:37:11.175Z,65.50
2023-02-11T11:39:39.839Z,64.65
2023-02-11T11:42:27.596Z,64.83
2023-02-11T11:45:01.428Z,65.08
2023-02-11T11:47:40.033Z,65.82
2023-02-11T11:50:25.248Z,66.02
2023-02-11T11:53:07.111Z,65.80
2023-02-11T11:55:52.881Z,65.86
2023-02-11T11:58:22.819Z,65.66
2023-02-11T12:00:55.458Z,65.32
2023-02-11T12:03:40.026Z,65.35
2023-02-11T12:06:35.805Z,63.70
2023-02-11T12:09:27.004Z,65.27
2023-02-11T12:12:02.001Z,65.34
2023-02-11T12:14:41.164Z,65.48
2023-02-11T12:17:36.929Z,64.60
2023-02-11T12:20:40.939Z,64.97
2023-02-11T12:23:39.365Z,65.52
2023-02-11T12:26:18.941Z,64.99
2023-02-11T12:29:18.562Z,62.99
2023-02-11T12:31:53.932Z,64.04
2023-02-11T12:34:46.505Z,63.78
2023-02-11T12:37:26.611Z,63.58
2023-02-11T12:40:15.480Z,60.26
2023-02-11T12:43:16.497Z,63.15
2023-02-11T12:45:51.345Z,63.66
2023-02-11T12:48:55.585Z,61.65
2023-02-11T12:51:37.450Z,64.50
2023-02-11T12:54:10.211Z,63.61
2023-02-11T12:56:48.639Z,63.13
2023-02-11T12:59:29.324Z,62.03
2023-02-11T13:01:57.860Z,63.57
2023-02-11T13:04:30.708Z,64.02
2023-02-11T13:07:06.350Z,62.64
2023-02-11T13:09:42.038Z,63.52
2023-02-11T13:12:31.482Z,62.92
2023-02-11T13:15:06.392Z,61.82
2023-02-11T13:18:19.404Z,61.95
2023-02-11T13:20:56.508Z,62.82
2023-02-11T13:23:41.549Z,62.67
2023-02-11T13:26:29.441Z,62.74
2023-02-11T13:29:30.564Z,62.67
2023-02-11T13:32:11.629Z,60.04
2023-02-11T13:34:41.041Z,60.56
2023-02-11T13:37:28.793Z,60.89
2023-02-11T13:40:20.252Z,61.24
2023-02-11T13:42:51.428Z,62.58
2023-02-11T13:45:27.721Z,62.90
2023-02-11T13:48:04.468Z,62.97
2023-02-11T13:50:38.083Z,60.82
2023-02-11T13:53:08.734Z,61.34
2023-02-11T13:55:36.081Z,61.59
2023-02-11T13:58:08.570Z,62.75
2023-02-11T14:00:35.365Z,62.66
2023-02-11T14:03:41.996Z,61.51
2023-02-11T14:06:27.157Z,59.22
2023-02-11T14:09:09.027Z,61.08
2023-02-11T14:11:41.825Z,60.80
2023-02-11T14:14:16.184Z,61.22
2023-02-11T14:17:07.555Z,61.18
2023-02-11T14:19:39.700Z,60.71
2023-02-11T14:22:23.684Z,62.33
2023-02-11T14:24:56.930Z,62.00
2023-02-11T14:28:08.618Z,61.10
2023-02-11T14:30:59.277Z,61.16
2023-02-11T14:33:34.958Z,60.95
2023-02-11T14:36:19.804Z,62.88
2023-02-11T14:38:57.538Z,61.67
2023-02-11T14:41:38.629Z,61.58
2023-02-11T14:44:15.829Z,63.35
2023-02-11T14:46:48.218Z,61.66
2023-02-11T14:49:37.803Z,62.89
2023-02-11T14:52:17.217Z,62.86
2023-02-11T14:54:45.145Z,62.79
2023-02-11T14:57:16.110Z,63.65
2023-02-11T15:00:21.185Z,63.51
2023-02-11T15:02:48.354Z,63.35
2023-02-11T15:05:20.234Z,64.39
2023-02-11T15:07:52.967Z,61.99
2023-02-11T15:10:30.700Z,62.92
2023-02-11T15:13:02.252Z,63.17
2023-02-11T15:15:30.788Z,63.78
2023-02-11T15:18:00.849Z,64.19
2023-02-11T15:20:31.786Z,64.86
2023-02-11T15:23:08.579Z,64.05
2023-02-11T15:25:43.410Z,64.03
2023-02-11T15:28:23.554Z,64.15
2023-02-11T15:31:04.084Z,64.30
2023-02-11T15:33:32.714Z,65.29
2023-02-11T15:36:02.478Z,65.15
2023-02-11T15:38:30.575Z,64.71
2023-02-11T15:41:00.939Z,64.18
2023-02-11T15:43:45.136Z,64.33
2023-02-11T15:46:18.820Z,64.20
2023-02-11T15:48:53.882Z,64.07
2023-02-11T15:51:25.287Z,65.02
2023-02-11T15:53:56.927Z,64.52
2023-02-11T15:56:32.890Z,64.14
2023-02-11T15:59:09.142Z,65.17
2023-02-11T16:01:38.183Z,64.93
2023-02-11T16:04:05.647Z,64.95
2023-02-11T16:06:43.572Z,64.20
2023-02-11T16:09:10.974Z,65.40
2023-02-11T16:11:55.455Z,65.89
2023-02-11T16:14:29.531Z,66.16
2023-02-11T16:17:03.922Z,66.25
2023-02-11T16:19:32.618Z,65.86
2023-02-11T16:22:02.699Z,65.01
2023-02-11T16:24:35.127Z,66.63
2023-02-11T16:27:04.400Z,66.67
2023-02-11T16:29:33.268Z,66.22
2023-02-11T16:32:08.753Z,66.37
2023-02-11T16:34:35.901Z,66.47
2023-02-11T16:37:06.042Z,67.03
2023-02-11T16:39:33.312Z,67.14
2023-02-11T16:42:01.269Z,66.17
2023-02-11T16:44:28.490Z,66.85
2023-02-11T16:46:58.543Z,64.94
2023-02-11T16:49:31.327Z,65.65
2023-02-11T16:52:05.637Z,66.19
2023-02-11T16:54:32.684Z,67.04
2023-02-11T16:56:59.550Z,67.02
2023-02-11T16:59:26.255Z,66.62
2023-02-11T17:01:54.243Z,68.00
2023-02-11T17:04:23.317Z,67.74
2023-02-11T17:06:50.049Z,67.60
2023-02-11T17:09:30.538Z,67.50
2023-02-11T17:11:57.915Z,67.38
2023-02-11T17:14:24.659Z,66.19
2023-02-11T17:16:51.349Z,66.58
2023-02-11T17:19:20.918Z,67.47
2023-02-11T17:21:49.853Z,67.49
2023-02-11T17:24:16.586Z,66.43
2023-02-11T17:26:47.532Z,67.42
2023-02-11T17:29:17.000Z,67.77
2023-02-11T17:31:46.083Z,66.83
2023-02-11T17:34:14.565Z,67.56
2023-02-11T17:36:42.115Z,67.10
2023-02-11T17:39:09.184Z,66.86
2023-02-11T17:41:40.053Z,67.66
2023-02-11T17:44:08.977Z,67.89
2023-02-11T17:46:39.117Z,70.24
2023-02-11T17:49:12.435Z,69.59
2023-02-11T17:51:44.554Z,69.28
2023-02-11T17:54:22.043Z,69.04
2023-02-11T17:56:58.204Z,67.12
2023-02-11T17:59:33.309Z,67.30
2023-02-11T18:02:06.498Z,67.79
2023-02-11T18:04:36.712Z,68.06
2023-02-11T18:07:08.807Z,68.48
2023-02-11T18:09:40.953Z,67.84
2023-02-11T18:12:12.722Z,67.44
2023-02-11T18:14:45.032Z,68.12
2023-02-11T18:17:16.341Z,67.12
2023-02-11T18:19:45.035Z,66.88
2023-02-11T18:22:14.882Z,66.76
2023-02-11T18:24:43.966Z,68.29
2023-02-11T18:27:13.830Z,68.35
2023-02-11T18:29:44.991Z,67.81
2023-02-11T18:32:15.835Z,67.56
2023-02-11T18:34:47.195Z,67.05
2023-02-11T18:37:17.007Z,67.59
2023-02-11T18:39:44.050Z,66.77
2023-02-11T18:42:10.886Z,68.10
2023-02-11T18:44:38.325Z,68.62
2023-02-11T18:47:08.718Z,67.70
2023-02-11T18:49:36.233Z,67.49
2023-02-11T18:52:03.248Z,67.61
2023-02-11T18:54:33.388Z,68.21
2023-02-11T18:57:02.894Z,67.97
2023-02-11T18:59:33.945Z,67.09
2023-02-11T19:02:04.721Z,68.13
2023-02-11T19:04:38.662Z,68.87
2023-02-11T19:07:10.432Z,68.80
2023-02-11T19:09:40.514Z,68.81
2023-02-11T19:12:11.649Z,68.06
2023-02-11T19:14:44.972Z,67.65
2023-02-11T19:17:14.986Z,67.98
2023-02-11T19:19:45.741Z,67.60
2023-02-11T19:22:18.747Z,67.39
2023-02-11T19:24:50.668Z,67.88
2023-02-11T19:27:19.493Z,67.59
2023-02-11T19:29:51.796Z,68.02
2023-02-11T19:32:24.407Z,68.00
2023-02-11T19:34:55.142Z,68.17
2023-02-11T19:37:27.195Z,68.45
2023-02-11T19:39:57.421Z,68.89
2023-02-11T19:42:28.893Z,66.69
2023-02-11T19:45:02.624Z,68.41
2023-02-11T19:47:32.659Z,67.91
2023-02-11T19:50:03.476Z,66.84
2023-02-11T19:52:32.452Z,68.11
2023-02-11T19:55:01.303Z,68.01
2023-02-11T19:57:30.463Z,68.01
2023-02-11T20:00:01.425Z,66.91
2023-02-11T20:02:42.286Z,66.89
2023-02-11T20:05:09.874Z,68.14
2023-02-11T20:07:37.891Z,67.52
2023-02-11T20:10:09.699Z,68.82
2023-02-11T20:12:37.442Z,68.93
2023-02-11T20:15:07.776Z,66.24
2023-02-11T20:17:37.311Z,67.16
2023-02-11T20:20:04.220Z,68.15
2023-02-11T20:22:30.821Z,69.18
2023-02-11T20:24:57.429Z,68.15
2023-02-11T20:27:26.327Z,66.56
2023-02-11T20:29:52.931Z,67.05
2023-02-11T20:32:19.612Z,67.76
2023-02-11T20:34:46.452Z,67.64
2023-02-11T20:37:13.137Z,67.18
2023-02-11T20:39:41.857Z,67.10
2023-02-11T20:42:11.536Z,67.02
2023-02-11T20:44:38.947Z,70.78
2023-02-11T20:47:05.517Z,71.25
2023-02-11T20:49:32.181Z,70.23
2023-02-11T20:51:58.792Z,69.41
2023-02-11T20:54:25.811Z,69.62
2023-02-11T20:56:58.125Z,69.07
2023-02-11T20:59:24.798Z,68.29
2023-02-11T21:01:54.104Z,68.25
2023-02-11T21:04:24.601Z,67.58
2023-02-11T21:06:54.644Z,67.66
2023-02-11T21:09:23.885Z,67.92
2023-02-11T21:11:51.901Z,67.47
2023-02-11T21:14:19.234Z,68.61
2023-02-11T21:16:47.381Z,68.31
2023-02-11T21:19:14.330Z,68.09
2023-02-11T21:21:41.647Z,68.82
2023-02-11T21:24:09.664Z,67.86
2023-02-11T21:26:37.231Z,67.79
2023-02-11T21:29:05.369Z,67.59
2023-02-11T21:31:33.934Z,66.41
2023-02-11T21:34:00.908Z,67.90
2023-02-11T21:36:28.785Z,68.39
2023-02-11T21:38:55.576Z,68.04
2023-02-11T21:41:22.903Z,67.29
2023-02-11T21:43:50.576Z,67.05
2023-02-11T21:46:18.697Z,67.99
2023-02-11T21:48:45.527Z,67.37
2023-02-11T21:51:18.015Z,68.88
2023-02-11T21:53:45.304Z,68.59
2023-02-11T21:56:17.361Z,68.35
2023-02-11T21:58:45.529Z,67.89
2023-02-11T22:01:18.415Z,67.80
2023-02-11T22:03:46.295Z,67.25
2023-02-11T22:06:16.697Z,67.57
2023-02-11T22:08:43.499Z,68.83
2023-02-11T22:11:12.385Z,67.59
2023-02-11T22:13:39.682Z,67.31
2023-02-11T22:16:10.530Z,68.14
2023-02-11T22:18:38.021Z,68.71
2023-02-11T22:21:07.775Z,67.95
2023-02-11T22:23:35.469Z,68.41
2023-02-11T22:26:09.905Z,67.86
2023-02-11T22:28:38.952Z,67.60
2023-02-11T22:31:06.676Z,67.55
2023-02-11T22:33:33.779Z,68.37
2023-02-11T22:36:10.246Z,69.84
2023-02-11T22:38:36.842Z,69.43
2023-02-11T22:41:09.598Z,67.97
2023-02-11T22:43:37.135Z,68.13
2023-02-11T22:46:05.491Z,68.42
2023-02-11T22:48:33.537Z,70.25
2023-02-11T22:51:07.193Z,70.29
2023-02-11T22:53:34.111Z,69.25
2023-02-11T22:56:07.005Z,68.75
2023-02-11T22:58:34.549Z,68.81
2023-02-11T23:01:01.372Z,68.33
2023-02-11T23:03:28.862Z,69.66
2023-02-11T23:05:58.909Z,68.81
2023-02-11T23:08:26.247Z,67.59
2023-02-11T23:10:53.218Z,69.11
2023-02-11T23:13:20.151Z,68.99
2023-02-11T23:15:47.955Z,71.04
2023-02-11T23:18:14.924Z,70.32
2023-02-11T23:20:43.494Z,68.87
2023-02-11T23:23:10.613Z,69.58
2023-02-11T23:25:42.708Z,69.69
2023-02-11T23:28:10.026Z,69.29
2023-02-11T23:30:36.667Z,68.29
2023-02-11T23:33:03.345Z,68.63
2023-02-11T23:35:30.198Z,67.09
2023-02-11T23:37:56.822Z,67.61
2023-02-11T23:40:23.428Z,68.37
2023-02-11T23:42:50.021Z,68.27
2023-02-11T23:45:16.793Z,66.75
2023-02-11T23:47:43.518Z,67.97
2023-02-11T23:50:10.800Z,69.21
2023-02-11T23:52:37.552Z,74.12
2023-02-11T23:55:05.058Z,74.14
2023-02-11T23:57:32.846Z,73.52
2023-02-11T23:59:59.608Z,71.98
